Time;durP1;ratioP1;P1;durP2;ratioP2;P2;SDS_P1;SDS_P2;PMS_P1;PMS_P2;Temp;Humidity;BMP_temperature;BMP_pressure;BME280_temperature;BME280_humidity;BME280_pressure;Samples;Min_cycle;Max_cycle;Signal;HPM_P1;HPM_P2
2021/05/10 00:01:13;;;;;;;;;;;;;;;22.22;36.54;100301.13;5034688;27;98939;-78
2021/05/10 00:03:40;;;;;;;;;;;;;;;22.21;36.63;100304.81;5032818;27;98884;-78
2021/05/10 00:06:06;;;;;;;;;;;;;;;22.19;36.49;100298.69;5033771;27;98910;-78
2021/05/10 00:08:31;;;;;;;;;;;;;;;22.21;36.50;100305.66;5029576;27;97760;-78
2021/05/10 00:10:57;;;;;;;;;;;;;;;22.30;36.45;100300.44;5030651;28;96943;-78
2021/05/10 00:13:23;;;;;;;;;;;;;;;22.08;36.67;100293.44;5032040;27;98912;-77
2021/05/10 00:15:49;;;;;;;;;;;;;;;22.19;36.48;100296.88;5036361;28;99211;-78
2021/05/10 00:18:16;;;;;;;;;;;;;;;22.17;36.40;100298.00;5037808;27;96986;-78
2021/05/10 00:20:45;;;;;;;;;;;;;;;22.17;36.38;100301.56;5035447;27;96877;-79
2021/05/10 00:23:12;;;;;;;;;;;;;;;22.20;36.32;100295.88;5033549;27;100390;-78
2021/05/10 00:25:38;;;;;;;;;;;;;;;22.13;36.26;100300.13;5033806;27;101509;-78
2021/05/10 00:28:04;;;;;;;;;;;;;;;22.20;36.15;100295.03;5033000;27;96830;-78
2021/05/10 00:30:31;;;;;;;;;;;;;;;22.08;36.32;100296.13;5034299;27;97117;-78
2021/05/10 00:32:57;;;;;;;;;;;;;;;22.07;36.31;100305.19;5032744;27;98953;-78
2021/05/10 00:35:23;;;;;;;;;;;;;;;21.85;36.73;100301.75;5032702;27;98842;-78
2021/05/10 00:37:50;;;;;;;;;;;;;;;21.95;36.72;100306.28;5033837;27;96784;-78
2021/05/10 00:40:17;;;;;;;;;;;;;;;21.66;36.97;100304.31;5032319;28;97289;-78
2021/05/10 00:42:42;;;;;;;;;;;;;;;21.82;36.71;100306.53;5032569;27;98847;-78
2021/05/10 00:45:09;;;;;;;;;;;;;;;21.67;37.01;100305.19;5034050;28;98837;-78
2021/05/10 00:47:35;;;;;;;;;;;;;;;21.84;36.81;100299.19;5034074;28;96705;-77
2021/05/10 00:50:01;;;;;;;;;;;;;;;21.80;36.54;100303.09;5033998;27;97108;-77
2021/05/10 00:52:27;;;;;;;;;;;;;;;21.91;36.60;100302.16;5032726;27;99395;-78
2021/05/10 00:54:55;;;;;;;;;;;;;;;21.75;36.77;100308.91;5035685;27;98811;-77
2021/05/10 00:57:21;;;;;;;;;;;;;;;21.65;36.83;100305.34;5033277;27;97432;-78
2021/05/10 00:59:49;;;;;;;;;;;;;;;21.61;37.25;100306.59;5034104;27;96980;-77
2021/05/10 01:02:14;;;;;;;;;;;;;;;21.59;36.94;100299.66;5034590;27;97831;-78
2021/05/10 01:04:41;;;;;;;;;;;;;;;21.44;37.08;100307.22;5033861;27;98959;-77
2021/05/10 01:07:06;;;;;;;;;;;;;;;21.45;37.61;100303.56;5034555;27;97030;-77
2021/05/10 01:09:32;;;;;;;;;;;;;;;21.58;37.20;100301.50;5031877;27;96862;-78
2021/05/10 01:11:59;;;;;;;;;;;;;;;21.30;37.42;100300.38;5033867;27;98791;-77
2021/05/10 01:14:25;;;;;;;;;;;;;;;21.47;37.23;100297.03;5030494;27;98848;-78
2021/05/10 01:16:51;;;;;;;;;;;;;;;21.51;37.12;100296.78;5031390;27;97037;-78
2021/05/10 01:19:16;;;;;;;;;;;;;;;21.53;36.84;100301.03;5033375;27;96890;-77
2021/05/10 01:21:43;;;;;;;;;;;;;;;21.41;36.94;100291.34;5033061;27;99068;-78
2021/05/10 01:24:09;;;;;;;;;;;;;;;21.40;37.09;100293.19;5032672;27;99238;-77
2021/05/10 01:26:36;;;;;;;;;;;;;;;21.35;37.02;100292.75;5032184;27;96926;-78
2021/05/10 01:29:02;;;;;;;;;;;;;;;21.31;37.11;100290.47;5033852;27;96809;-78
2021/05/10 01:31:28;;;;;;;;;;;;;;;21.24;36.85;100295.53;5033347;27;97742;-78
2021/05/10 01:33:54;;;;;;;;;;;;;;;21.24;36.97;100289.28;5030942;27;101239;-77
2021/05/10 01:36:19;;;;;;;;;;;;;;;21.03;37.37;100286.59;5029945;27;96970;-77
2021/05/10 01:38:45;;;;;;;;;;;;;;;21.24;37.08;100278.53;5031510;27;96965;-78
2021/05/10 01:41:12;;;;;;;;;;;;;;;21.45;36.56;100287.44;5033183;27;101607;-78
2021/05/10 01:43:38;;;;;;;;;;;;;;;21.34;36.54;100291.03;5029675;28;99054;-78
2021/05/10 01:46:03;;;;;;;;;;;;;;;21.24;36.90;100291.97;5033667;27;97115;-78
2021/05/10 01:48:29;;;;;;;;;;;;;;;21.29;36.60;100289.75;5033323;27;97351;-78
2021/05/10 01:50:55;;;;;;;;;;;;;;;21.42;36.44;100285.84;5032085;27;98913;-77
2021/05/10 01:53:21;;;;;;;;;;;;;;;21.25;36.74;100291.84;5028838;27;98743;-78
2021/05/10 01:55:46;;;;;;;;;;;;;;;21.23;36.69;100279.53;5029619;27;96977;-78
2021/05/10 01:58:13;;;;;;;;;;;;;;;21.23;36.83;100284.91;5031955;27;96848;-78
2021/05/10 02:00:40;;;;;;;;;;;;;;;20.74;37.41;100278.38;5031307;28;98767;-78
2021/05/10 02:03:07;;;;;;;;;;;;;;;20.87;37.10;100286.22;5031633;27;99347;-78
2021/05/10 02:05:33;;;;;;;;;;;;;;;20.93;37.03;100289.22;5032236;28;97067;-78
2021/05/10 02:07:59;;;;;;;;;;;;;;;20.95;36.79;100279.19;5031687;27;97240;-78
2021/05/10 02:10:26;;;;;;;;;;;;;;;20.73;37.44;100283.84;5030149;28;99066;-78
2021/05/10 02:12:52;;;;;;;;;;;;;;;20.80;37.06;100280.53;5029187;27;98793;-79
2021/05/10 02:15:19;;;;;;;;;;;;;;;20.75;37.19;100266.63;5031793;27;96866;-78
2021/05/10 02:17:45;;;;;;;;;;;;;;;20.95;36.80;100278.34;5037859;27;97015;-78
2021/05/10 02:20:11;;;;;;;;;;;;;;;20.94;36.55;100274.78;5033809;27;98938;-77
2021/05/10 02:22:37;;;;;;;;;;;;;;;20.89;36.91;100285.09;5027617;27;99802;-78
2021/05/10 02:25:04;;;;;;;;;;;;;;;20.97;36.83;100277.22;5031724;28;97019;-79
2021/05/10 02:27:30;;;;;;;;;;;;;;;20.93;36.75;100265.06;5035172;27;96970;-77
2021/05/10 02:29:55;;;;;;;;;;;;;;;20.66;36.90;100264.72;5036527;27;99331;-78
2021/05/10 02:32:22;;;;;;;;;;;;;;;20.62;37.20;100265.94;5035110;27;99277;-77
2021/05/10 02:34:48;;;;;;;;;;;;;;;20.67;36.89;100267.28;5035598;27;96843;-78
2021/05/10 02:37:15;;;;;;;;;;;;;;;20.84;36.39;100271.22;5027479;27;98234;-78
2021/05/10 02:39:41;;;;;;;;;;;;;;;21.08;36.05;100278.97;5035643;27;99469;-78
2021/05/10 02:42:07;;;;;;;;;;;;;;;20.64;36.65;100275.59;5035503;27;97879;-78
2021/05/10 02:44:33;;;;;;;;;;;;;;;20.85;36.42;100277.44;5034808;27;97343;-78
2021/05/10 02:46:59;;;;;;;;;;;;;;;20.74;36.65;100272.13;5037210;27;96908;-78
2021/05/10 02:49:25;;;;;;;;;;;;;;;20.76;36.46;100280.91;5037726;28;98947;-77
2021/05/10 02:51:51;;;;;;;;;;;;;;;20.73;36.67;100290.09;5038309;27;98848;-78
2021/05/10 02:54:17;;;;;;;;;;;;;;;20.43;37.21;100276.53;5043384;27;96715;-77
2021/05/10 02:56:43;;;;;;;;;;;;;;;20.46;36.96;100282.53;5037541;28;96828;-77
2021/05/10 02:59:08;;;;;;;;;;;;;;;20.44;37.06;100281.78;5048800;28;98948;-78
2021/05/10 03:01:34;;;;;;;;;;;;;;;20.50;36.83;100273.22;5052518;27;97981;-77
2021/05/10 03:04:00;;;;;;;;;;;;;;;20.39;37.10;100275.97;5052307;27;96874;-77
2021/05/10 03:06:26;;;;;;;;;;;;;;;20.48;36.94;100269.78;5052328;27;96726;-77
2021/05/10 03:08:52;;;;;;;;;;;;;;;20.44;36.86;100280.94;5051419;27;97826;-78
2021/05/10 03:11:19;;;;;;;;;;;;;;;20.32;36.94;100276.56;5052051;27;97476;-78
2021/05/10 03:13:45;;;;;;;;;;;;;;;20.27;36.94;100277.81;5043890;27;96675;-78
2021/05/10 03:16:11;;;;;;;;;;;;;;;20.50;36.42;100283.94;5050319;27;96814;-77
2021/05/10 03:18:36;;;;;;;;;;;;;;;20.37;36.94;100287.78;5050827;27;97827;-78
2021/05/10 03:21:18;;;;;;;;;;;;;;;20.33;36.74;100280.97;5026706;27;98300;-78
2021/05/10 03:23:45;;;;;;;;;;;;;;;20.38;36.56;100290.34;5026048;27;96771;-78
2021/05/10 03:26:11;;;;;;;;;;;;;;;20.29;36.74;100294.59;5032484;27;97172;-78
2021/05/10 03:28:37;;;;;;;;;;;;;;;20.33;36.81;100297.09;5036563;27;97836;-78
2021/05/10 03:31:03;;;;;;;;;;;;;;;20.42;36.74;100298.97;5044507;27;100081;-78
2021/05/10 03:33:28;;;;;;;;;;;;;;;20.15;37.28;100307.47;5056715;27;97680;-78
2021/05/10 03:35:54;;;;;;;;;;;;;;;20.17;37.08;100292.94;5057790;27;97085;-77
2021/05/10 03:38:20;;;;;;;;;;;;;;;19.98;37.41;100302.63;5054214;27;99722;-78
2021/05/10 03:40:47;;;;;;;;;;;;;;;20.08;37.20;100296.41;5039780;28;98830;-78
2021/05/10 03:43:13;;;;;;;;;;;;;;;20.18;36.88;100294.66;5035714;27;96974;-78
2021/05/10 03:45:39;;;;;;;;;;;;;;;20.29;36.66;100297.28;5034017;27;98288;-79
2021/05/10 03:48:05;;;;;;;;;;;;;;;20.36;36.66;100300.34;5036691;27;98854;-79
2021/05/10 03:50:31;;;;;;;;;;;;;;;20.38;36.56;100295.72;5036969;27;98226;-79
2021/05/10 03:52:57;;;;;;;;;;;;;;;20.33;36.61;100292.56;5036153;27;96915;-78
2021/05/10 03:55:23;;;;;;;;;;;;;;;20.54;36.43;100289.94;5036825;27;96807;-78
2021/05/10 03:57:50;;;;;;;;;;;;;;;20.47;36.19;100294.09;5033844;28;100407;-78
2021/05/10 04:00:17;;;;;;;;;;;;;;;20.44;36.07;100302.41;5033415;28;99000;-78
2021/05/10 04:02:43;;;;;;;;;;;;;;;20.63;35.83;100298.03;5035162;28;97908;-78
2021/05/10 04:05:19;;;;;;;;;;;;;;;20.53;36.43;100307.00;5030726;27;97385;-78
2021/05/10 04:07:51;;;;;;;;;;;;;;;20.69;35.77;100304.72;5035009;28;98997;-79
2021/05/10 04:10:39;;;;;;;;;;;;;;;20.55;35.97;100315.75;5034436;28;98915;-78
2021/05/10 04:15:50;;;;;;;;;;;;;;;20.78;35.71;100308.47;5030689;27;97191;-78
2021/05/10 04:18:16;;;;;;;;;;;;;;;20.61;35.91;100320.66;5035311;27;98198;-78
2021/05/10 04:20:41;;;;;;;;;;;;;;;20.67;35.91;100318.31;5036029;27;100441;-78
2021/05/10 04:23:07;;;;;;;;;;;;;;;20.42;35.98;100307.88;5033233;27;96855;-79
2021/05/10 04:25:33;;;;;;;;;;;;;;;20.63;35.57;100327.56;5035771;27;97460;-78
2021/05/10 04:27:59;;;;;;;;;;;;;;;20.47;36.18;100304.84;5032152;27;98903;-77
2021/05/10 04:30:26;;;;;;;;;;;;;;;20.46;35.72;100297.75;5035715;27;98796;-78
2021/05/10 04:32:56;;;;;;;;;;;;;;;20.55;35.89;100310.41;5032132;27;96812;-78
2021/05/10 04:35:22;;;;;;;;;;;;;;;20.22;36.00;100300.59;5037955;27;97244;-79
2021/05/10 04:37:48;;;;;;;;;;;;;;;20.43;35.51;100303.38;5036502;28;102874;-78
2021/05/10 04:40:14;;;;;;;;;;;;;;;20.43;35.84;100298.88;5033800;28;98738;-78
2021/05/10 04:42:40;;;;;;;;;;;;;;;20.54;35.55;100306.88;5028380;28;97245;-78
2021/05/10 04:45:07;;;;;;;;;;;;;;;20.89;35.04;100301.19;5034287;28;96987;-78
2021/05/10 04:47:36;;;;;;;;;;;;;;;20.96;35.01;100296.16;5034197;27;98935;-78
2021/05/10 04:50:03;;;;;;;;;;;;;;;21.13;34.35;100281.28;5036073;28;98226;-78
2021/05/10 04:52:31;;;;;;;;;;;;;;;21.14;34.02;100294.56;5037547;27;96928;-79
2021/05/10 04:54:57;;;;;;;;;;;;;;;21.03;34.47;100282.06;5035836;27;97363;-79
2021/05/10 04:57:23;;;;;;;;;;;;;;;21.03;34.03;100276.69;5025395;28;97781;-78
2021/05/10 04:59:49;;;;;;;;;;;;;;;21.22;34.00;100280.50;5032759;28;98892;-78
2021/05/10 05:02:15;;;;;;;;;;;;;;;21.48;33.56;100288.00;5034550;27;96857;-78
2021/05/10 05:04:41;;;;;;;;;;;;;;;21.35;33.70;100286.50;5040385;28;96988;-79
2021/05/10 05:07:07;;;;;;;;;;;;;;;21.26;33.97;100287.34;5046775;27;98023;-78
2021/05/10 05:09:33;;;;;;;;;;;;;;;21.45;33.54;100295.50;5036215;27;99024;-78
2021/05/10 05:11:59;;;;;;;;;;;;;;;21.34;33.95;100292.88;5029849;27;96757;-78
2021/05/10 05:14:24;;;;;;;;;;;;;;;21.56;33.00;100292.69;5030187;27;98884;-78
2021/05/10 05:16:50;;;;;;;;;;;;;;;21.62;33.19;100288.63;5029658;27;97877;-78
2021/05/10 05:19:16;;;;;;;;;;;;;;;21.40;33.01;100279.75;5029915;27;98921;-78
2021/05/10 05:21:45;;;;;;;;;;;;;;;21.63;33.41;100282.25;5034821;27;96742;-78
2021/05/10 05:24:14;;;;;;;;;;;;;;;21.37;33.12;100273.81;5033832;27;96939;-79
2021/05/10 05:26:39;;;;;;;;;;;;;;;21.29;33.72;100270.94;5032123;27;101100;-78
2021/05/10 05:29:05;;;;;;;;;;;;;;;21.52;33.38;100271.63;5032635;27;98660;-79
2021/05/10 05:31:31;;;;;;;;;;;;;;;21.48;33.10;100268.31;5032261;27;97300;-79
2021/05/10 05:33:57;;;;;;;;;;;;;;;21.52;33.16;100272.47;5032147;27;96873;-77
2021/05/10 05:36:22;;;;;;;;;;;;;;;21.72;32.60;100279.63;5031983;27;98389;-78
2021/05/10 05:38:49;;;;;;;;;;;;;;;22.13;31.95;100277.72;5034606;27;99209;-79
2021/05/10 05:41:15;;;;;;;;;;;;;;;22.07;31.80;100279.16;5031827;27;96844;-78
2021/05/10 05:43:41;;;;;;;;;;;;;;;22.12;31.60;100271.50;5033509;27;97282;-78
2021/05/10 05:46:12;;;;;;;;;;;;;;;22.42;31.16;100273.25;5033233;27;98490;-78
2021/05/10 05:48:38;;;;;;;;;;;;;;;22.42;30.88;100267.84;5037936;27;100209;-78
2021/05/10 05:51:04;;;;;;;;;;;;;;;22.60;31.05;100274.22;5030265;27;97152;-79
2021/05/10 05:53:30;;;;;;;;;;;;;;;22.57;30.78;100276.38;5021344;27;96894;-78
2021/05/10 05:55:56;;;;;;;;;;;;;;;22.69;30.70;100280.59;5023154;27;98933;-79
2021/05/10 05:58:22;;;;;;;;;;;;;;;22.98;30.46;100283.28;5033639;27;99027;-79
2021/05/10 06:00:48;;;;;;;;;;;;;;;23.01;30.36;100280.31;5030604;27;97275;-79
2021/05/10 06:03:15;;;;;;;;;;;;;;;22.61;30.91;100284.00;5027862;27;97435;-79
2021/05/10 06:05:41;;;;;;;;;;;;;;;23.12;30.19;100285.50;5029672;27;98991;-79
2021/05/10 06:08:06;;;;;;;;;;;;;;;23.15;30.22;100279.00;5036276;27;98772;-79
2021/05/10 06:10:32;;;;;;;;;;;;;;;23.20;30.37;100285.66;5030993;27;97068;-79
2021/05/10 06:12:59;;;;;;;;;;;;;;;22.80;30.52;100293.09;5032043;27;97490;-79
2021/05/10 06:15:25;;;;;;;;;;;;;;;23.53;29.93;100296.91;5020883;27;98204;-79
2021/05/10 06:17:51;;;;;;;;;;;;;;;23.35;29.65;100297.66;5031094;27;98828;-79
2021/05/10 06:20:19;;;;;;;;;;;;;;;23.45;29.89;100293.06;5030666;27;96854;-79
2021/05/10 06:22:45;;;;;;;;;;;;;;;23.63;29.48;100297.75;5035368;28;96969;-79
2021/05/10 06:25:12;;;;;;;;;;;;;;;23.14;30.07;100296.16;5029214;28;99216;-79
2021/05/10 06:27:38;;;;;;;;;;;;;;;24.00;29.28;100294.97;5029219;27;98832;-78
2021/05/10 06:30:06;;;;;;;;;;;;;;;23.88;29.31;100309.69;5015832;27;97668;-78
2021/05/10 06:32:32;;;;;;;;;;;;;;;23.64;29.33;100312.91;5016419;27;97721;-77
2021/05/10 06:34:58;;;;;;;;;;;;;;;24.15;29.07;100310.53;5013709;27;97907;-76
2021/05/10 06:37:28;;;;;;;;;;;;;;;23.65;29.47;100304.66;5016619;27;98352;-77
2021/05/10 06:39:54;;;;;;;;;;;;;;;24.36;28.84;100304.00;5018573;27;98342;-78
2021/05/10 06:42:20;;;;;;;;;;;;;;;24.38;28.90;100300.16;5014948;27;98944;-78
2021/05/10 06:44:46;;;;;;;;;;;;;;;24.28;28.86;100295.84;5013378;27;98908;-79
2021/05/10 06:47:13;;;;;;;;;;;;;;;24.50;28.52;100298.91;5011602;27;99193;-79
2021/05/10 06:49:39;;;;;;;;;;;;;;;24.14;29.38;100299.88;5013774;27;98756;-79
2021/05/10 06:52:05;;;;;;;;;;;;;;;23.86;29.60;100287.38;5016636;27;99462;-80
2021/05/10 06:54:31;;;;;;;;;;;;;;;24.26;29.41;100290.59;5015836;27;98533;-78
2021/05/10 06:56:56;;;;;;;;;;;;;;;24.05;29.45;100288.13;5016753;27;99762;-76
2021/05/10 06:59:22;;;;;;;;;;;;;;;24.65;28.94;100274.91;5015519;27;97595;-79
2021/05/10 07:01:48;;;;;;;;;;;;;;;24.84;29.01;100269.31;5017835;27;98826;-77
2021/05/10 07:04:15;;;;;;;;;;;;;;;25.64;27.58;100279.00;5015305;27;99194;-78
2021/05/10 07:06:42;;;;;;;;;;;;;;;25.09;27.94;100291.16;5025570;27;100952;-78
2021/05/10 07:09:08;;;;;;;;;;;;;;;25.87;26.76;100286.53;5027861;27;96991;-80
2021/05/10 07:11:34;;;;;;;;;;;;;;;25.58;27.17;100285.06;5027873;27;99253;-78
2021/05/10 07:13:59;;;;;;;;;;;;;;;25.66;27.31;100282.41;5026734;27;98527;-79
2021/05/10 07:16:25;;;;;;;;;;;;;;;26.91;26.09;100290.50;5027255;27;99182;-80
2021/05/10 07:18:51;;;;;;;;;;;;;;;26.32;26.37;100291.63;5019233;27;98752;-78
2021/05/10 07:21:18;;;;;;;;;;;;;;;25.94;27.21;100293.84;5019392;27;98737;-77
2021/05/10 07:23:45;;;;;;;;;;;;;;;25.79;27.22;100285.50;5015668;27;98555;-76
2021/05/10 07:26:11;;;;;;;;;;;;;;;25.73;27.45;100283.44;5021519;27;99132;-77
2021/05/10 07:28:36;;;;;;;;;;;;;;;25.36;28.12;100291.00;5022324;27;97409;-75
2021/05/10 07:31:02;;;;;;;;;;;;;;;25.63;28.06;100290.84;5019644;27;99277;-77
2021/05/10 07:33:28;;;;;;;;;;;;;;;25.75;27.77;100294.09;5017182;27;99081;-76
2021/05/10 07:35:54;;;;;;;;;;;;;;;25.54;28.13;100299.03;5020833;27;100649;-76
2021/05/10 07:38:21;;;;;;;;;;;;;;;26.03;27.81;100311.81;5021433;27;97895;-77
2021/05/10 07:40:47;;;;;;;;;;;;;;;25.96;27.71;100316.19;5020653;27;99792;-76
2021/05/10 07:43:13;;;;;;;;;;;;;;;25.60;28.29;100320.09;5018259;27;99442;-77
2021/05/10 07:45:38;;;;;;;;;;;;;;;26.22;27.47;100326.91;5021350;27;98796;-77
2021/05/10 07:48:05;;;;;;;;;;;;;;;26.50;27.25;100322.13;5026274;27;97109;-78
2021/05/10 07:50:31;;;;;;;;;;;;;;;26.57;26.76;100320.44;5017865;27;98836;-78
2021/05/10 07:52:57;;;;;;;;;;;;;;;26.95;26.20;100322.50;5017361;27;98773;-77
2021/05/10 07:55:24;;;;;;;;;;;;;;;27.18;26.22;100325.38;5019971;27;98786;-77
2021/05/10 07:57:53;;;;;;;;;;;;;;;26.82;26.52;100318.59;5019017;27;99589;-77
2021/05/10 08:00:22;;;;;;;;;;;;;;;27.21;26.19;100307.91;5021497;27;99028;-76
2021/05/10 08:02:51;;;;;;;;;;;;;;;27.17;26.13;100304.72;5006398;27;99469;-76
2021/05/10 08:05:17;;;;;;;;;;;;;;;27.78;25.92;100308.63;5017437;27;99990;-78
2021/05/10 08:07:43;;;;;;;;;;;;;;;27.73;25.28;100292.88;5033574;28;96990;-78
2021/05/10 08:10:09;;;;;;;;;;;;;;;27.86;25.42;100281.44;5031619;27;97256;-76
2021/05/10 08:12:35;;;;;;;;;;;;;;;27.65;26.17;100282.03;5037551;28;98395;-78
2021/05/10 08:15:01;;;;;;;;;;;;;;;27.97;25.62;100282.91;5030510;27;99258;-77
2021/05/10 08:17:28;;;;;;;;;;;;;;;27.88;25.98;100267.72;5035879;27;97170;-77
2021/05/10 08:19:54;;;;;;;;;;;;;;;27.80;25.34;100267.75;5027468;27;97193;-79
2021/05/10 08:22:19;;;;;;;;;;;;;;;27.55;25.91;100273.28;5030605;27;99255;-77
2021/05/10 08:24:45;;;;;;;;;;;;;;;27.58;26.41;100278.34;5032582;28;98413;-77
2021/05/10 08:27:11;;;;;;;;;;;;;;;27.80;25.90;100273.16;5024950;27;97388;-77
2021/05/10 08:29:39;;;;;;;;;;;;;;;27.71;25.62;100294.91;5034396;27;97216;-78
2021/05/10 08:32:05;;;;;;;;;;;;;;;28.04;25.44;100294.75;5033423;27;99283;-78
2021/05/10 08:34:30;;;;;;;;;;;;;;;28.04;25.61;100298.31;5031457;27;97953;-77
2021/05/10 08:36:57;;;;;;;;;;;;;;;27.82;25.64;100301.84;5033614;27;97169;-77
2021/05/10 08:39:23;;;;;;;;;;;;;;;28.21;25.25;100284.69;5024101;27;97010;-76
2021/05/10 08:41:48;;;;;;;;;;;;;;;27.87;26.06;100288.56;5031681;27;99930;-78
2021/05/10 08:44:14;;;;;;;;;;;;;;;28.13;25.40;100282.84;5033004;27;99086;-76
2021/05/10 08:46:42;;;;;;;;;;;;;;;27.92;25.81;100274.47;5032654;28;97079;-76
2021/05/10 08:49:09;;;;;;;;;;;;;;;27.75;25.92;100279.13;5033846;27;96955;-77
2021/05/10 08:51:35;;;;;;;;;;;;;;;27.82;25.98;100280.13;5031325;27;98951;-75
2021/05/10 08:54:01;;;;;;;;;;;;;;;27.98;25.36;100274.59;5036391;27;97758;-77
2021/05/10 08:56:27;;;;;;;;;;;;;;;27.49;26.59;100279.38;5029201;27;97350;-78
2021/05/10 08:58:53;;;;;;;;;;;;;;;27.28;27.16;100270.94;5032684;27;97451;-76
2021/05/10 09:01:21;;;;;;;;;;;;;;;27.97;26.29;100267.47;5032873;27;97714;-79
2021/05/10 09:03:49;;;;;;;;;;;;;;;27.92;26.14;100267.16;5038654;27;97647;-76
2021/05/10 09:06:18;;;;;;;;;;;;;;;28.13;25.99;100267.38;5036388;27;97852;-76
2021/05/10 09:08:45;;;;;;;;;;;;;;;27.85;26.37;100277.03;5034901;27;97537;-77
2021/05/10 09:11:11;;;;;;;;;;;;;;;28.18;26.21;100263.31;5035232;27;99054;-78
2021/05/10 09:13:39;;;;;;;;;;;;;;;27.93;26.11;100277.00;5036537;27;98830;-77
2021/05/10 09:16:05;;;;;;;;;;;;;;;27.64;26.70;100276.78;5032856;27;96850;-77
2021/05/10 09:18:31;;;;;;;;;;;;;;;27.62;26.83;100268.84;5040255;27;97053;-77
2021/05/10 09:21:09;;;;;;;;;;;;;;;27.55;26.49;100264.28;5050118;27;97842;-77
2021/05/10 09:23:35;;;;;;;;;;;;;;;27.98;25.98;100263.72;5037253;27;97457;-77
2021/05/10 09:26:01;;;;;;;;;;;;;;;27.91;26.66;100278.19;5033478;27;96844;-77
2021/05/10 09:28:27;;;;;;;;;;;;;;;28.06;26.09;100280.00;5034829;27;97514;-78
2021/05/10 09:30:54;;;;;;;;;;;;;;;28.19;26.01;100270.44;5042342;27;99268;-77
2021/05/10 09:33:23;;;;;;;;;;;;;;;28.57;25.87;100271.34;5035987;27;98929;-77
2021/05/10 09:35:49;;;;;;;;;;;;;;;28.72;25.82;100266.81;5029963;27;98749;-77
2021/05/10 09:38:18;;;;;;;;;;;;;;;28.67;25.64;100259.22;5028950;27;98838;-77
2021/05/10 09:40:48;;;;;;;;;;;;;;;28.82;25.54;100270.16;5031941;27;97869;-77
2021/05/10 09:43:15;;;;;;;;;;;;;;;28.68;25.53;100257.34;5034428;27;99833;-77
2021/05/10 09:45:43;;;;;;;;;;;;;;;28.96;25.89;100260.34;5030385;27;96918;-77
2021/05/10 09:48:10;;;;;;;;;;;;;;;28.92;25.53;100271.59;5037068;27;97452;-77
2021/05/10 09:50:37;;;;;;;;;;;;;;;28.65;26.03;100272.16;5034781;27;99084;-78
2021/05/10 09:53:04;;;;;;;;;;;;;;;28.72;25.91;100264.97;5033004;27;99383;-78
2021/05/10 09:55:43;;;;;;;;;;;;;;;28.59;25.85;100266.59;5030397;27;97973;-77
2021/05/10 09:58:09;;;;;;;;;;;;;;;28.31;26.23;100267.13;5032173;28;96937;-79
2021/05/10 10:00:35;;;;;;;;;;;;;;;28.12;26.69;100270.28;5031788;27;99286;-79
2021/05/10 10:03:01;;;;;;;;;;;;;;;28.20;26.86;100272.13;5038836;27;98045;-78
2021/05/10 10:05:28;;;;;;;;;;;;;;;28.09;26.80;100262.50;5030079;27;97150;-76
2021/05/10 10:07:54;;;;;;;;;;;;;;;27.77;27.07;100255.34;5029346;27;98664;-76
2021/05/10 10:10:19;;;;;;;;;;;;;;;27.77;27.18;100249.91;5030927;27;101751;-77
2021/05/10 10:12:47;;;;;;;;;;;;;;;27.64;27.09;100257.78;5030138;27;99458;-78
2021/05/10 10:15:13;;;;;;;;;;;;;;;28.30;27.05;100253.72;5034770;27;96674;-77
2021/05/10 10:17:39;;;;;;;;;;;;;;;28.43;26.91;100257.53;5034358;27;97761;-76
2021/05/10 10:20:07;;;;;;;;;;;;;;;28.12;26.80;100259.41;5028375;27;97725;-76
2021/05/10 10:22:33;;;;;;;;;;;;;;;28.34;26.43;100255.91;5029216;27;96861;-77
2021/05/10 10:25:02;;;;;;;;;;;;;;;28.84;26.50;100254.50;5031400;27;96818;-78
2021/05/10 10:27:29;;;;;;;;;;;;;;;28.54;26.96;100264.44;5035348;27;97359;-77
2021/05/10 10:29:56;;;;;;;;;;;;;;;28.47;26.77;100263.47;5029944;28;98844;-78
2021/05/10 10:32:22;;;;;;;;;;;;;;;28.58;26.87;100265.75;5051396;27;97677;-77
2021/05/10 10:34:48;;;;;;;;;;;;;;;28.28;27.27;100270.22;5045611;27;96544;-78
2021/05/10 10:37:15;;;;;;;;;;;;;;;28.74;26.86;100273.81;5037186;27;97212;-77
2021/05/10 10:39:50;;;;;;;;;;;;;;;28.98;26.62;100253.69;5030515;27;98331;-77
2021/05/10 10:42:22;;;;;;;;;;;;;;;28.60;26.65;100265.56;5030111;27;99476;-75
2021/05/10 10:44:53;;;;;;;;;;;;;;;28.51;26.77;100262.06;5032104;28;97305;-76
2021/05/10 10:47:36;;;;;;;;;;;;;;;29.08;26.15;100257.00;5027947;27;98750;-77
2021/05/10 10:50:03;;;;;;;;;;;;;;;28.64;26.14;100269.59;5030567;27;99214;-76
2021/05/10 10:52:30;;;;;;;;;;;;;;;28.58;26.45;100273.91;5035453;27;99308;-79
2021/05/10 10:55:16;;;;;;;;;;;;;;;29.11;26.30;100267.50;5037609;27;96991;-78
2021/05/10 10:57:42;;;;;;;;;;;;;;;28.45;26.97;100273.66;5025584;28;97835;-76
2021/05/10 11:00:08;;;;;;;;;;;;;;;28.78;26.51;100256.09;5031062;27;97767;-76
2021/05/10 11:02:39;;;;;;;;;;;;;;;28.31;26.95;100253.53;5029975;27;99342;-78
2021/05/10 11:05:07;;;;;;;;;;;;;;;28.84;26.66;100249.06;5036187;27;96865;-78
2021/05/10 11:07:49;;;;;;;;;;;;;;;28.89;26.13;100250.22;5034867;28;97009;-78
2021/05/10 11:10:30;;;;;;;;;;;;;;;28.87;26.31;100251.44;5024449;28;99628;-77
2021/05/10 11:12:55;;;;;;;;;;;;;;;29.03;26.31;100242.25;5023762;28;98213;-77
2021/05/10 11:15:42;;;;;;;;;;;;;;;28.80;26.29;100242.31;5033186;27;96833;-78
2021/05/10 11:18:07;;;;;;;;;;;;;;;29.18;25.74;100234.97;5033593;27;97100;-78
2021/05/10 11:20:37;;;;;;;;;;;;;;;29.22;25.81;100237.13;5032964;27;99271;-78
2021/05/10 11:23:22;;;;;;;;;;;;;;;29.36;25.69;100234.63;5033485;27;99364;-78
2021/05/10 11:25:48;;;;;;;;;;;;;;;29.60;25.25;100237.88;5032277;27;98491;-78
2021/05/10 11:28:32;;;;;;;;;;;;;;;29.79;25.00;100244.63;5031978;27;97295;-79
2021/05/10 11:30:59;;;;;;;;;;;;;;;29.93;24.95;100234.78;5026685;28;99365;-77
2021/05/10 11:33:40;;;;;;;;;;;;;;;29.95;24.75;100238.13;5029690;28;98987;-76
2021/05/10 11:36:06;;;;;;;;;;;;;;;30.13;25.20;100235.00;5031146;28;96933;-76
2021/05/10 11:38:32;;;;;;;;;;;;;;;29.70;25.17;100235.72;5032359;27;97071;-78
2021/05/10 11:40:58;;;;;;;;;;;;;;;29.87;25.37;100225.44;5032465;27;99365;-76
2021/05/10 11:43:24;;;;;;;;;;;;;;;30.05;24.87;100222.34;5030232;27;98958;-78
2021/05/10 11:45:52;;;;;;;;;;;;;;;30.05;24.97;100216.91;5028725;27;97244;-77
2021/05/10 11:48:33;;;;;;;;;;;;;;;30.03;24.97;100210.78;5027602;27;98113;-77
2021/05/10 11:50:59;;;;;;;;;;;;;;;30.43;24.49;100218.34;5028081;28;99260;-77
2021/05/10 11:53:28;;;;;;;;;;;;;;;30.93;23.43;100205.56;5029401;27;98614;-78
2021/05/10 11:55:55;;;;;;;;;;;;;;;30.89;23.27;100201.53;5030245;27;97755;-77
2021/05/10 11:58:37;;;;;;;;;;;;;;;30.86;23.12;100221.88;5030742;27;97527;-77
2021/05/10 12:01:03;;;;;;;;;;;;;;;30.64;23.08;100217.50;5030261;27;99047;-79
2021/05/10 12:03:28;;;;;;;;;;;;;;;30.41;23.60;100228.59;5032958;27;99172;-79
2021/05/10 12:05:54;;;;;;;;;;;;;;;30.75;23.47;100229.75;5029218;27;97401;-78
2021/05/10 12:08:23;;;;;;;;;;;;;;;30.30;24.13;100236.44;5032801;28;97070;-78
2021/05/10 12:10:49;;;;;;;;;;;;;;;30.33;24.19;100220.53;5031031;27;98302;-79
2021/05/10 12:13:17;;;;;;;;;;;;;;;30.73;23.47;100229.94;5030041;28;98277;-78
2021/05/10 12:15:43;;;;;;;;;;;;;;;30.51;23.92;100238.34;5033747;28;97313;-78
2021/05/10 12:18:09;;;;;;;;;;;;;;;30.12;24.10;100239.63;5032920;27;97782;-80
2021/05/10 12:20:35;;;;;;;;;;;;;;;30.29;24.05;100227.41;5029300;28;98891;-78
2021/05/10 12:23:01;;;;;;;;;;;;;;;30.77;23.69;100217.63;5029392;27;98771;-78
2021/05/10 12:25:27;;;;;;;;;;;;;;;30.20;23.57;100227.72;5031751;27;97199;-78
2021/05/10 12:27:58;;;;;;;;;;;;;;;30.42;23.65;100221.25;5031792;27;96862;-78
2021/05/10 12:30:28;;;;;;;;;;;;;;;30.80;23.70;100205.44;5032689;27;98937;-79
2021/05/10 12:32:55;;;;;;;;;;;;;;;30.77;23.42;100184.91;5031362;27;98449;-79
2021/05/10 12:35:22;;;;;;;;;;;;;;;30.75;23.01;100199.75;5033900;28;97166;-80
2021/05/10 12:37:48;;;;;;;;;;;;;;;30.99;22.90;100203.91;5032787;27;97612;-78